Time;durP1;ratioP1;P1;durP2;ratioP2;P2;SDS_P1;SDS_P2;PMS_P1;PMS_P2;Temp;Humidity;BMP_temperature;BMP_pressure;BME280_temperature;BME280_humidity;BME280_pressure;Samples;Min_cycle;Max_cycle;Signal;HPM_P1;HPM_P2
2021/04/30 00:01:08;;;;;;;18.25;12.15;;;;;;;-141.50;100.00;63355.56;5105226;28;20043;-76
2021/04/30 00:03:34;;;;;;;17.70;12.02;;;;;;;-141.50;100.00;63355.56;5103076;28;20104;-78
2021/04/30 00:06:01;;;;;;;20.40;12.18;;;;;;;-141.50;100.00;63355.56;5112324;28;20040;-77
2021/04/30 00:08:27;;;;;;;17.38;11.80;;;;;;;-141.50;100.00;63355.56;5095944;28;20048;-77
2021/04/30 00:10:53;;;;;;;19.67;12.05;;;;;;;-141.50;100.00;63355.56;5096766;28;20046;-76
2021/04/30 00:13:19;;;;;;;18.30;11.27;;;;;;;-141.50;100.00;63355.56;5095890;28;20056;-77
2021/04/30 00:15:45;;;;;;;22.05;12.32;;;;;;;-141.50;100.00;63355.56;5104341;28;20071;-79
2021/04/30 00:18:22;;;;;;;19.20;11.98;;;;;;;-141.50;100.00;63355.56;5092886;28;20110;-76
2021/04/30 00:20:59;;;;;;;19.48;12.60;;;;;;;-141.50;100.00;63355.56;5112837;28;20043;-77
2021/04/30 00:23:26;;;;;;;20.45;12.50;;;;;;;-141.50;100.00;63355.56;5112380;28;20422;-77
2021/04/30 00:25:56;;;;;;;17.80;12.05;;;;;;;-141.50;100.00;63355.56;5112249;28;20101;-76
2021/04/30 00:28:23;;;;;;;21.42;12.40;;;;;;;-141.50;100.00;63355.56;5112132;28;20329;-77
2021/04/30 00:30:50;;;;;;;18.40;12.35;;;;;;;-141.50;100.00;63355.56;5112314;28;20044;-77
2021/04/30 00:33:17;;;;;;;17.63;12.15;;;;;;;-141.50;100.00;63355.56;5079056;28;20052;-79
2021/04/30 00:35:46;;;;;;;17.70;12.40;;;;;;;-141.50;100.00;63355.56;5092064;28;20044;-78
2021/04/30 00:38:13;;;;;;;23.65;13.10;;;;;;;-141.50;100.00;63355.56;5079158;28;20062;-77
2021/04/30 00:40:39;;;;;;;18.55;12.13;;;;;;;-141.50;100.00;63355.56;5077524;28;20358;-76
2021/04/30 00:43:06;;;;;;;19.88;12.82;;;;;;;-141.50;100.00;63355.56;5094519;28;20036;-75
2021/04/30 00:45:32;;;;;;;18.63;12.60;;;;;;;-141.50;100.00;63355.56;5092167;28;20062;-79
2021/04/30 00:47:59;;;;;;;19.35;12.75;;;;;;;-141.50;100.00;63355.56;5091162;28;20256;-77
2021/04/30 00:50:27;;;;;;;16.95;11.93;;;;;;;-141.50;100.00;63355.56;5090015;28;20048;-80
2021/04/30 00:52:54;;;;;;;18.58;12.05;;;;;;;-141.50;100.00;63355.56;5089506;28;20047;-78
2021/04/30 00:55:21;;;;;;;22.30;12.85;;;;;;;-141.50;100.00;63355.56;5090295;28;20374;-77
2021/04/30 00:57:56;;;;;;;20.23;12.02;;;;;;;-141.50;100.00;63355.56;5100246;28;20078;-77
2021/04/30 01:00:24;;;;;;;14.45;8.63;;;;;;;-141.50;100.00;63355.56;5110741;28;20040;-78
2021/04/30 01:02:50;;;;;;;18.55;11.73;;;;;;;-141.50;100.00;63355.56;5090743;28;20048;-79
2021/04/30 01:05:17;;;;;;;17.23;11.52;;;;;;;-141.50;100.00;63355.56;5092398;28;20495;-76
2021/04/30 01:07:44;;;;;;;19.73;12.73;;;;;;;-141.50;100.00;63355.56;5092559;28;20054;-77
2021/04/30 01:10:11;;;;;;;18.95;12.23;;;;;;;-141.50;100.00;63355.56;5093343;28;20044;-77
2021/04/30 01:12:38;;;;;;;18.17;12.18;;;;;;;-141.50;100.00;63355.56;5075935;28;20043;-77
2021/04/30 01:15:06;;;;;;;18.90;12.50;;;;;;;-141.50;100.00;63355.56;5092368;28;20058;-78
2021/04/30 01:17:36;;;;;;;20.40;12.70;;;;;;;-141.50;100.00;63355.56;5110633;28;20126;-76
2021/04/30 01:20:05;;;;;;;18.95;12.65;;;;;;;-141.50;100.00;63355.56;5092738;28;20075;-77
2021/04/30 01:22:43;;;;;;;18.30;12.57;;;;;;;-141.50;100.00;63355.56;5091207;28;20055;-77
2021/04/30 01:25:13;;;;;;;20.10;12.43;;;;;;;-141.50;100.00;63355.56;5116192;28;20023;-76
2021/04/30 01:27:40;;;;;;;18.95;12.60;;;;;;;-141.50;100.00;63355.56;5109270;28;20054;-77
2021/04/30 01:30:13;;;;;;;20.17;13.23;;;;;;;-141.50;100.00;63355.56;5110196;28;20500;-78
2021/04/30 01:32:39;;;;;;;21.15;13.48;;;;;;;-141.50;100.00;63355.56;5099595;28;20541;-76
2021/04/30 01:35:07;;;;;;;21.63;13.48;;;;;;;-141.50;100.00;63355.56;5092662;28;20051;-76
2021/04/30 01:37:33;;;;;;;20.08;12.88;;;;;;;-141.50;100.00;63355.56;5090645;28;20051;-76
2021/04/30 01:39:59;;;;;;;20.02;13.23;;;;;;;-141.50;100.00;63355.56;5109391;28;20054;-77
2021/04/30 01:42:25;;;;;;;21.17;13.82;;;;;;;-141.50;100.00;63355.56;5091944;28;20052;-77
2021/04/30 01:44:52;;;;;;;20.85;13.90;;;;;;;-141.50;100.00;63355.56;5092106;28;20040;-78
2021/04/30 01:47:21;;;;;;;20.65;13.02;;;;;;;-141.50;100.00;63355.56;5091538;28;20066;-76
2021/04/30 01:49:47;;;;;;;21.38;13.55;;;;;;;-141.50;100.00;63355.56;5112518;28;20059;-77
2021/04/30 01:52:13;;;;;;;21.25;13.52;;;;;;;-141.50;100.00;63355.56;5118734;28;20695;-76
2021/04/30 01:54:47;;;;;;;20.80;12.88;;;;;;;-141.50;100.00;63355.56;5117797;28;20048;-76
2021/04/30 01:57:13;;;;;;;22.80;13.15;;;;;;;-141.50;100.00;63355.56;5117498;28;20086;-75
2021/04/30 01:59:39;;;;;;;21.60;12.93;;;;;;;-141.50;100.00;63355.56;5101005;28;20526;-76
2021/04/30 02:02:08;;;;;;;23.95;14.15;;;;;;;-141.50;100.00;63355.56;5118512;28;20514;-74
2021/04/30 02:04:35;;;;;;;23.33;13.68;;;;;;;-141.50;100.00;63355.56;5118242;28;20063;-76
2021/04/30 02:07:01;;;;;;;24.63;14.60;;;;;;;-141.50;100.00;63355.56;5097703;28;20048;-75
2021/04/30 02:09:27;;;;;;;21.38;13.30;;;;;;;-141.50;100.00;63355.56;5107085;28;20047;-76
2021/04/30 02:11:53;;;;;;;23.25;13.55;;;;;;;-141.50;100.00;63355.56;5123689;28;20035;-76
2021/04/30 02:14:19;;;;;;;22.42;14.27;;;;;;;-141.50;100.00;63355.56;5123640;28;20051;-77
2021/04/30 02:16:45;;;;;;;21.08;13.30;;;;;;;-141.50;100.00;63355.56;5115720;28;20052;-76
2021/04/30 02:19:12;;;;;;;23.90;13.93;;;;;;;-141.50;100.00;63355.56;5120943;28;20051;-76
2021/04/30 02:21:38;;;;;;;23.00;14.15;;;;;;;-141.50;100.00;63355.56;5095464;28;20226;-77
2021/04/30 02:24:04;;;;;;;24.08;12.98;;;;;;;-141.50;100.00;63355.56;5092565;28;20150;-77
2021/04/30 02:26:30;;;;;;;24.77;13.50;;;;;;;-141.50;100.00;63355.56;5105897;28;20059;-78
2021/04/30 02:28:56;;;;;;;23.42;13.95;;;;;;;-141.50;100.00;63355.56;5112365;28;20047;-77
2021/04/30 02:31:22;;;;;;;20.70;13.35;;;;;;;-141.50;100.00;63355.56;5112363;28;20043;-76
2021/04/30 02:33:48;;;;;;;23.35;13.30;;;;;;;-141.50;100.00;63355.56;5109732;28;20083;-76
2021/04/30 02:36:14;;;;;;;24.98;14.18;;;;;;;-141.50;100.00;63355.56;5087570;28;20050;-77
2021/04/30 02:38:41;;;;;;;22.10;13.70;;;;;;;-141.50;100.00;63355.56;5091217;28;20040;-75
2021/04/30 02:41:07;;;;;;;23.17;14.15;;;;;;;-141.50;100.00;63355.56;5092825;28;20149;-76
2021/04/30 02:43:33;;;;;;;21.73;13.45;;;;;;;-141.50;100.00;63355.56;5092304;28;20055;-76
2021/04/30 02:46:01;;;;;;;24.92;14.18;;;;;;;-141.50;100.00;63355.56;5091922;28;20055;-76
2021/04/30 02:48:40;;;;;;;22.90;14.20;;;;;;;-141.50;100.00;63355.56;5073382;28;20501;-78
2021/04/30 02:51:08;;;;;;;24.15;13.70;;;;;;;-141.50;100.00;63355.56;5090972;28;20047;-78
2021/04/30 02:53:35;;;;;;;26.00;13.88;;;;;;;-141.50;100.00;63355.56;5089124;28;20048;-78
2021/04/30 02:56:01;;;;;;;26.00;14.38;;;;;;;-141.50;100.00;63355.56;5088899;28;20645;-77
2021/04/30 02:58:27;;;;;;;22.25;13.65;;;;;;;-141.50;100.00;63355.56;5090029;28;20044;-77
2021/04/30 03:00:53;;;;;;;20.85;13.77;;;;;;;-141.50;100.00;63355.56;5088666;28;20557;-78
2021/04/30 03:03:19;;;;;;;26.13;14.48;;;;;;;-141.50;100.00;63355.56;5088980;28;20060;-78
2021/04/30 03:05:45;;;;;;;23.17;14.32;;;;;;;-141.50;100.00;63355.56;5094205;28;20066;-76
2021/04/30 03:08:11;;;;;;;24.95;14.23;;;;;;;-141.50;100.00;63355.56;5093649;28;20058;-76
2021/04/30 03:10:37;;;;;;;24.27;13.82;;;;;;;-141.50;100.00;63355.56;5087789;28;20499;-75
2021/04/30 03:13:03;;;;;;;22.75;14.23;;;;;;;-141.50;100.00;63355.56;5085833;28;20048;-76
2021/04/30 03:15:30;;;;;;;21.58;13.68;;;;;;;-141.50;100.00;63355.56;5091675;28;20055;-76
2021/04/30 03:17:56;;;;;;;22.67;13.00;;;;;;;-141.50;100.00;63355.56;5108055;28;20100;-75
2021/04/30 03:20:22;;;;;;;22.80;13.40;;;;;;;-141.50;100.00;63355.56;5108078;28;20047;-76
2021/04/30 03:22:49;;;;;;;20.83;13.05;;;;;;;-141.50;100.00;63355.56;5107823;28;20632;-77
2021/04/30 03:25:16;;;;;;;25.77;14.25;;;;;;;-141.50;100.00;63355.56;5090348;28;20055;-78
2021/04/30 03:27:43;;;;;;;22.50;14.43;;;;;;;-141.50;100.00;63355.56;5089747;28;20063;-78
2021/04/30 03:30:11;;;;;;;23.95;14.40;;;;;;;-141.50;100.00;63355.56;5090258;28;20051;-77
2021/04/30 03:32:37;;;;;;;23.60;13.68;;;;;;;-141.50;100.00;63355.56;5080861;28;20090;-77
2021/04/30 03:35:04;;;;;;;24.25;14.00;;;;;;;-141.50;100.00;63355.56;5070452;28;20054;-77
2021/04/30 03:37:30;;;;;;;22.90;14.20;;;;;;;-141.50;100.00;63355.56;5088338;28;20071;-78
2021/04/30 03:39:56;;;;;;;25.45;14.38;;;;;;;-141.50;100.00;63355.56;5070419;28;20461;-77
2021/04/30 03:42:23;;;;;;;26.20;14.90;;;;;;;-141.50;100.00;63355.56;5086976;28;20055;-77
2021/04/30 03:44:48;;;;;;;29.05;15.23;;;;;;;-141.50;100.00;63355.56;5088708;28;20449;-77
2021/04/30 03:47:15;;;;;;;23.48;14.38;;;;;;;-141.50;100.00;63355.56;5089932;28;20052;-79
2021/04/30 03:49:41;;;;;;;23.90;14.77;;;;;;;-141.50;100.00;63355.56;5090889;28;20048;-78
2021/04/30 03:52:07;;;;;;;23.85;14.68;;;;;;;-141.50;100.00;63355.56;5091000;28;20134;-79
2021/04/30 03:54:34;;;;;;;25.48;15.82;;;;;;;-141.50;100.00;63355.56;5110500;28;20495;-79
2021/04/30 03:57:00;;;;;;;24.42;15.32;;;;;;;-141.50;100.00;63355.56;5093906;28;20166;-77
2021/04/30 03:59:27;;;;;;;26.02;15.95;;;;;;;-141.50;100.00;63355.56;5107176;28;20487;-77
2021/04/30 04:01:53;;;;;;;28.88;16.48;;;;;;;-141.50;100.00;63355.56;5089214;28;20040;-76
2021/04/30 04:04:19;;;;;;;28.20;15.02;;;;;;;-141.50;100.00;63355.56;5089405;28;20296;-76
2021/04/30 04:06:45;;;;;;;25.45;15.68;;;;;;;-141.50;100.00;63355.56;5090926;28;20062;-78
2021/04/30 04:09:11;;;;;;;27.30;15.27;;;;;;;-141.50;100.00;63355.56;5090180;28;20059;-78
2021/04/30 04:11:37;;;;;;;25.08;15.60;;;;;;;-141.50;100.00;63355.56;5089579;28;20036;-77
2021/04/30 04:14:04;;;;;;;28.27;16.05;;;;;;;-141.50;100.00;63355.56;5090058;28;20044;-78
2021/04/30 04:16:30;;;;;;;30.02;15.50;;;;;;;-141.50;100.00;63355.56;5090507;28;20055;-77
2021/04/30 04:18:56;;;;;;;23.63;15.20;;;;;;;-141.50;100.00;63355.56;5077769;23;20060;-76
2021/04/30 04:21:22;;;;;;;27.70;15.55;;;;;;;-141.50;100.00;63355.56;5029422;28;20049;-77
2021/04/30 04:23:48;;;;;;;25.55;15.18;;;;;;;-141.50;100.00;63355.56;5030928;28;20056;-76
2021/04/30 04:26:18;;;;;;;29.15;15.85;;;;;;;-141.50;100.00;63355.56;5051175;28;20480;-77
2021/04/30 04:28:44;;;;;;;29.10;16.23;;;;;;;-141.50;100.00;63355.56;5052038;28;20051;-77
2021/04/30 04:31:10;;;;;;;25.40;14.60;;;;;;;-141.50;100.00;63355.56;5069636;28;20048;-75
2021/04/30 04:33:39;;;;;;;27.35;14.70;;;;;;;-141.50;100.00;63355.56;5052659;28;20508;-77
2021/04/30 04:36:05;;;;;;;25.58;14.68;;;;;;;-141.50;100.00;63355.56;5067573;28;20085;-77
2021/04/30 04:38:31;;;;;;;30.17;16.08;;;;;;;-141.50;100.00;63355.56;5032690;28;20053;-77
2021/04/30 04:40:57;;;;;;;23.42;14.60;;;;;;;-141.50;100.00;63355.56;5049897;28;20057;-76
2021/04/30 04:43:24;;;;;;;27.92;14.73;;;;;;;-141.50;100.00;63355.56;5031401;28;20052;-76
2021/04/30 04:45:52;;;;;;;24.83;14.45;;;;;;;-141.50;100.00;63355.56;5014457;28;20071;-77
2021/04/30 04:48:18;;;;;;;27.60;14.60;;;;;;;-141.50;100.00;63355.56;5047499;28;20057;-76
2021/04/30 04:50:44;;;;;;;25.15;13.93;;;;;;;-141.50;100.00;63355.56;5041983;28;20053;-76
2021/04/30 04:53:22;;;;;;;26.45;14.95;;;;;;;-141.50;100.00;63355.56;5033288;28;20136;-77
2021/04/30 04:56:06;;;;;;;25.90;14.25;;;;;;;-141.50;100.00;63355.56;5048942;28;20049;-75
2021/04/30 04:58:34;;;;;;;26.20;15.15;;;;;;;-141.50;100.00;63355.56;5046886;28;20028;-78
2021/04/30 05:01:01;;;;;;;27.88;14.82;;;;;;;-141.50;100.00;63355.56;5021059;28;20056;-75
2021/04/30 05:03:27;;;;;;;26.13;14.32;;;;;;;-141.50;100.00;63355.56;5010456;28;20037;-75
2021/04/30 05:05:54;;;;;;;30.45;15.18;;;;;;;-141.50;100.00;63355.56;5044694;28;20053;-75
2021/04/30 05:08:20;;;;;;;29.45;14.80;;;;;;;-141.50;100.00;63355.56;5049911;28;20049;-76
2021/04/30 05:10:46;;;;;;;26.75;14.63;;;;;;;-141.50;100.00;63355.56;5048165;28;20183;-75
2021/04/30 05:13:12;;;;;;;29.95;15.23;;;;;;;-141.50;100.00;63355.56;5030686;28;20125;-75
2021/04/30 05:15:48;;;;;;;28.35;15.70;;;;;;;-141.50;100.00;63355.56;5031988;28;20059;-76
2021/04/30 05:18:14;;;;;;;24.77;14.93;;;;;;;-141.50;100.00;63355.56;5048295;28;20053;-77
2021/04/30 05:20:43;;;;;;;30.90;15.00;;;;;;;-141.50;100.00;63355.56;5059973;28;20051;-77
2021/04/30 05:23:09;;;;;;;25.77;14.93;;;;;;;-141.50;100.00;63355.56;5068862;28;20048;-77
2021/04/30 05:25:35;;;;;;;25.92;14.65;;;;;;;-141.50;100.00;63355.56;5068023;28;20240;-77
2021/04/30 05:28:01;;;;;;;29.42;14.45;;;;;;;-141.50;100.00;63355.56;5049981;28;20052;-79
2021/04/30 05:30:28;;;;;;;26.55;14.70;;;;;;;-141.50;100.00;63355.56;5029999;28;20052;-78
2021/04/30 05:32:56;;;;;;;26.60;14.48;;;;;;;-141.50;100.00;63355.56;5036853;28;20512;-80
2021/04/30 05:35:22;;;;;;;29.67;15.05;;;;;;;-141.50;100.00;63355.56;5060048;28;20045;-78
2021/04/30 05:37:48;;;;;;;30.42;15.48;;;;;;;-141.50;100.00;63355.56;5032054;28;20098;-79
2021/04/30 05:40:14;;;;;;;31.85;15.23;;;;;;;-141.50;100.00;63355.56;5050073;28;20057;-79
2021/04/30 05:42:41;;;;;;;28.42;14.65;;;;;;;-141.50;100.00;63355.56;5032961;28;20045;-77
2021/04/30 05:45:10;;;;;;;29.52;15.45;;;;;;;-141.50;100.00;63355.56;5014410;28;20044;-79
2021/04/30 05:47:37;;;;;;;33.15;15.30;;;;;;;-141.50;100.00;63355.56;5032849;28;20060;-78
2021/04/30 05:50:04;;;;;;;25.42;15.13;;;;;;;-141.50;100.00;63355.56;5060414;28;20024;-81
2021/04/30 05:52:33;;;;;;;25.02;13.73;;;;;;;-141.50;100.00;63355.56;5032194;28;20060;-78
2021/04/30 05:55:00;;;;;;;30.70;14.32;;;;;;;-141.50;100.00;63355.56;5030176;28;20081;-79
2021/04/30 05:57:27;;;;;;;27.42;14.73;;;;;;;-141.50;100.00;63355.56;5046635;28;20126;-78
2021/04/30 05:59:53;;;;;;;29.77;15.20;;;;;;;-141.50;100.00;63355.56;5032375;28;20535;-79
2021/04/30 06:02:19;;;;;;;27.27;14.48;;;;;;;-141.50;100.00;63355.56;5046274;28;20052;-79
2021/04/30 06:04:45;;;;;;;28.17;14.27;;;;;;;-141.50;100.00;63355.56;5050191;28;20080;-77
2021/04/30 06:07:11;;;;;;;25.92;14.15;;;;;;;-141.50;100.00;63355.56;5050163;28;20045;-78
2021/04/30 06:09:37;;;;;;;26.88;13.98;;;;;;;-141.50;100.00;63355.56;5050600;28;20408;-77
2021/04/30 06:12:04;;;;;;;27.65;14.43;;;;;;;-141.50;100.00;63355.56;5049929;28;20045;-77
2021/04/30 06:14:30;;;;;;;26.20;14.13;;;;;;;-141.50;100.00;63355.56;5067095;28;20049;-78
2021/04/30 06:16:58;;;;;;;24.17;14.10;;;;;;;-141.50;100.00;63355.56;5049561;28;20068;-80
2021/04/30 06:19:24;;;;;;;26.30;14.25;;;;;;;-141.50;100.00;63355.56;5035595;28;20154;-78
2021/04/30 06:21:51;;;;;;;30.10;14.68;;;;;;;-141.50;100.00;63355.56;5050724;28;20057;-79
2021/04/30 06:24:17;;;;;;;28.58;14.88;;;;;;;-141.50;100.00;63355.56;5046289;28;20048;-78
2021/04/30 06:26:43;;;;;;;26.88;14.40;;;;;;;-141.50;100.00;63355.56;5059854;28;20499;-78
2021/04/30 06:29:10;;;;;;;25.90;14.73;;;;;;;-141.50;100.00;63355.56;5054437;28;20052;-78
2021/04/30 06:31:37;;;;;;;25.50;14.27;;;;;;;-141.50;100.00;63355.56;5055011;28;20041;-78
2021/04/30 06:34:04;;;;;;;25.92;14.38;;;;;;;-141.50;100.00;63355.56;5031631;28;20049;-80
2021/04/30 06:36:31;;;;;;;25.08;14.05;;;;;;;-141.50;100.00;63355.56;5038466;28;20045;-79
2021/04/30 06:38:58;;;;;;;23.85;13.80;;;;;;;-141.50;100.00;63355.56;5043394;28;20072;-79
2021/04/30 06:41:27;;;;;;;29.77;14.38;;;;;;;-141.50;100.00;63355.56;5056312;28;20055;-78
2021/04/30 06:43:53;;;;;;;24.45;13.88;;;;;;;-141.50;100.00;63355.56;5047667;28;20060;-78
2021/04/30 06:46:21;;;;;;;26.52;14.02;;;;;;;-141.50;100.00;63355.56;5050907;28;20040;-77
2021/04/30 06:48:54;;;;;;;28.38;13.27;;;;;;;-141.50;100.00;63355.56;5036856;28;20645;-77
2021/04/30 06:51:20;;;;;;;25.73;13.77;;;;;;;-141.50;100.00;63355.56;5068974;28;20406;-77
2021/04/30 06:53:47;;;;;;;26.08;13.88;;;;;;;-141.50;100.00;63355.56;5059040;28;20756;-72
2021/04/30 06:56:13;;;;;;;21.58;12.95;;;;;;;-141.50;100.00;63355.56;5048239;28;20045;-77
2021/04/30 06:58:40;;;;;;;22.83;12.90;;;;;;;-141.50;100.00;63355.56;5062007;28;20098;-78
2021/04/30 07:01:09;;;;;;;21.48;13.38;;;;;;;-141.50;100.00;63355.56;5048338;28;20455;-73
2021/04/30 07:03:42;;;;;;;24.88;13.75;;;;;;;-141.50;100.00;63355.56;5043150;28;20101;-79
2021/04/30 07:06:08;;;;;;;21.25;13.38;;;;;;;-141.50;100.00;63355.56;5047178;28;20038;-79
2021/04/30 07:08:34;;;;;;;25.88;13.32;;;;;;;-141.50;100.00;63355.56;5041238;28;20049;-79
2021/04/30 07:11:01;;;;;;;24.08;13.45;;;;;;;-141.50;100.00;63355.56;5025957;28;20107;-78
2021/04/30 07:13:27;;;;;;;22.13;13.10;;;;;;;-141.50;100.00;63355.56;5043400;28;20040;-77
2021/04/30 07:15:55;;;;;;;24.85;14.38;;;;;;;-141.50;100.00;63355.56;5026059;28;20519;-78
2021/04/30 07:18:21;;;;;;;20.08;13.13;;;;;;;-141.50;100.00;63355.56;5045131;28;20041;-80
2021/04/30 07:20:48;;;;;;;26.63;13.77;;;;;;;-141.50;100.00;63355.56;5036045;28;20045;-78
2021/04/30 07:23:18;;;;;;;20.33;12.88;;;;;;;-141.50;100.00;63355.56;5025762;28;20124;-78
2021/04/30 07:25:50;;;;;;;23.33;13.85;;;;;;;-141.50;100.00;63355.56;5057670;28;20052;-78
2021/04/30 07:28:17;;;;;;;21.00;13.27;;;;;;;-141.50;100.00;63355.56;5054808;28;20056;-79
2021/04/30 07:30:43;;;;;;;24.65;12.63;;;;;;;-141.50;100.00;63355.56;5036277;28;20051;-79
2021/04/30 07:33:11;;;;;;;21.92;13.00;;;;;;;-141.50;100.00;63355.56;5033892;28;20049;-74
2021/04/30 07:35:41;;;;;;;25.75;12.98;;;;;;;-141.50;100.00;63355.56;5049913;28;20057;-77
2021/04/30 07:38:09;;;;;;;20.35;12.27;;;;;;;-141.50;100.00;63355.56;5065017;28;20527;-77
2021/04/30 07:40:40;;;;;;;21.20;12.45;;;;;;;-141.50;100.00;63355.56;5050117;28;20048;-76
2021/04/30 07:43:07;;;;;;;21.70;13.05;;;;;;;-141.50;100.00;63355.56;5049977;28;20045;-77
2021/04/30 07:45:34;;;;;;;20.33;12.38;;;;;;;-141.50;100.00;63355.56;5051727;28;20051;-79
2021/04/30 07:48:03;;;;;;;20.83;11.95;;;;;;;-141.50;100.00;63355.56;5056084;28;20724;-78
2021/04/30 07:50:29;;;;;;;22.30;13.13;;;;;;;-141.50;100.00;63355.56;5053211;28;20080;-78
2021/04/30 07:52:55;;;;;;;19.38;13.40;;;;;;;-141.50;100.00;63355.56;5049755;28;20064;-78
2021/04/30 07:55:23;;;;;;;18.75;12.50;;;;;;;-141.50;100.00;63355.56;5051031;28;20048;-79
2021/04/30 07:57:50;;;;;;;21.52;13.05;;;;;;;-141.50;100.00;63355.56;5035973;28;20060;-79
2021/04/30 08:00:16;;;;;;;21.33;13.00;;;;;;;-141.50;100.00;63355.56;5025553;28;20063;-78
2021/04/30 08:02:42;;;;;;;19.73;12.95;;;;;;;-141.50;100.00;63355.56;5034142;28;20041;-78
2021/04/30 08:05:09;;;;;;;18.20;12.43;;;;;;;-141.50;100.00;63355.56;5012860;28;20057;-77
2021/04/30 08:07:37;;;;;;;19.65;12.85;;;;;;;-141.50;100.00;63355.56;5011070;28;20055;-76
2021/04/30 08:10:05;;;;;;;19.30;12.40;;;;;;;-141.50;100.00;63355.56;5032129;28;20060;-79
2021/04/30 08:12:31;;;;;;;25.23;13.27;;;;;;;-141.50;100.00;63355.56;5031668;28;20101;-77
2021/04/30 08:14:58;;;;;;;21.20;12.75;;;;;;;-141.50;100.00;63355.56;5033619;28;20780;-78
2021/04/30 08:17:26;;;;;;;17.58;12.23;;;;;;;-141.50;100.00;63355.56;5053537;28;20451;-79
2021/04/30 08:19:58;;;;;;;16.80;11.48;;;;;;;-141.50;100.00;63355.56;5034724;28;20048;-77
2021/04/30 08:22:27;;;;;;;17.98;12.07;;;;;;;-141.50;100.00;63355.56;5018071;28;20055;-79
2021/04/30 08:24:55;;;;;;;18.73;12.35;;;;;;;-141.50;100.00;63355.56;5049220;28;20052;-79
2021/04/30 08:27:22;;;;;;;18.63;11.70;;;;;;;-141.50;100.00;63355.56;5037122;28;20045;-81
2021/04/30 08:29:52;;;;;;;17.63;12.05;;;;;;;-141.50;100.00;63355.56;5034948;28;20084;-81
2021/04/30 08:32:18;;;;;;;20.83;12.68;;;;;;;-141.50;100.00;63355.56;5033445;28;20072;-80
2021/04/30 08:34:45;;;;;;;17.75;12.38;;;;;;;-141.50;100.00;63355.56;5017424;28;20060;-80
2021/04/30 08:37:12;;;;;;;19.70;11.95;;;;;;;-141.50;100.00;63355.56;5035906;28;20052;-81
2021/04/30 08:39:39;;;;;;;21.58;12.70;;;;;;;-141.50;100.00;63355.56;5034662;28;20067;-79
2021/04/30 08:42:08;;;;;;;20.33;13.40;;;;;;;-141.50;100.00;63355.56;5051525;28;20516;-80
2021/04/30 08:44:37;;;;;;;18.02;11.52;;;;;;;-141.50;100.00;63355.56;5011775;28;20570;-81
2021/04/30 08:47:03;;;;;;;20.42;12.52;;;;;;;-141.50;100.00;63355.56;5054695;28;20053;-78
2021/04/30 08:49:30;;;;;;;19.05;12.32;;;;;;;-141.50;100.00;63355.56;5061687;28;20543;-79
2021/04/30 08:51:57;;;;;;;19.40;12.10;;;;;;;-141.50;100.00;63355.56;5052792;28;20049;-79
2021/04/30 08:54:23;;;;;;;18.17;11.70;;;;;;;-141.50;100.00;63355.56;5052010;28;20217;-80
2021/04/30 08:56:56;;;;;;;14.85;10.68;;;;;;;-141.50;100.00;63355.56;5033589;28;20077;-79
2021/04/30 08:59:25;;;;;;;19.58;12.38;;;;;;;-141.50;100.00;63355.56;5034076;28;20045;-79
2021/04/30 09:01:51;;;;;;;19.52;12.23;;;;;;;-141.50;100.00;63355.56;5034323;28;20045;-79
2021/04/30 09:04:18;;;;;;;17.45;11.88;;;;;;;-141.50;100.00;63355.56;5016908;28;20500;-80
2021/04/30 09:06:45;;;;;;;21.30;11.43;;;;;;;-141.50;100.00;63355.56;5041314;28;20041;-81
2021/04/30 09:09:17;;;;;;;17.20;12.20;;;;;;;-141.50;100.00;63355.56;5044102;28;20413;-82
2021/04/30 09:11:47;;;;;;;21.73;12.45;;;;;;;-141.50;100.00;63355.56;5043558;28;20048;-81
2021/04/30 09:14:23;;;;;;;18.40;12.23;;;;;;;-141.50;100.00;63355.56;5042671;28;20056;-82
2021/04/30 09:17:14;;;;;;;16.95;11.77;;;;;;;-141.50;100.00;63355.56;5030577;28;20051;-81
2021/04/30 09:19:51;;;;;;;19.00;11.23;;;;;;;-141.50;100.00;63355.56;5024787;28;20493;-81
2021/04/30 09:22:45;;;;;;;15.98;11.25;;;;;;;-141.50;100.00;63355.56;5025586;28;20132;-78
2021/04/30 09:25:16;;;;;;;18.35;11.68;;;;;;;-141.50;100.00;63355.56;5041578;28;20053;-78
2021/04/30 09:27:43;;;;;;;15.77;11.20;;;;;;;-141.50;100.00;63355.56;5027802;28;20045;-78
2021/04/30 09:30:29;;;;;;;16.15;11.13;;;;;;;-141.50;100.00;63355.56;5022804;28;20044;-79
2021/04/30 09:33:09;;;;;;;17.58;11.57;;;;;;;-141.50;100.00;63355.56;5010459;28;20455;-80
2021/04/30 09:35:55;;;;;;;17.30;11.18;;;;;;;-141.50;100.00;63355.56;5006612;28;20487;-79
2021/04/30 09:38:22;;;;;;;18.45;11.60;;;;;;;-141.50;100.00;63355.56;5023525;28;20136;-79
2021/04/30 09:40:50;;;;;;;15.38;11.32;;;;;;;-141.50;100.00;63355.56;5040267;28;20045;-80
2021/04/30 09:43:20;;;;;;;17.80;11.35;;;;;;;-141.50;100.00;63355.56;5038997;28;20052;-79
2021/04/30 09:45:48;;;;;;;17.25;10.75;;;;;;;-141.50;100.00;63355.56;5040482;28;20552;-79
2021/04/30 09:48:15;;;;;;;16.02;10.95;;;;;;;-141.50;100.00;63355.56;5024241;28;20528;-80
2021/04/30 09:50:44;;;;;;;17.55;10.20;;;;;;;-141.50;100.00;63355.56;5010323;28;20051;-81
2021/04/30 09:53:13;;;;;;;16.25;10.50;;;;;;;-141.50;100.00;63355.56;5024344;28;20517;-80
2021/04/30 09:55:51;;;;;;;15.68;11.50;;;;;;;-141.50;100.00;63355.56;5040964;28;20055;-80
2021/04/30 09:58:22;;;;;;;15.82;10.25;;;;;;;-141.50;100.00;63355.56;5045294;28;20345;-79
2021/04/30 10:00:50;;;;;;;13.68;9.90;;;;;;;-141.50;100.00;63355.56;5023291;28;20042;-79
2021/04/30 10:03:25;;;;;;;13.80;9.45;;;;;;;-141.50;100.00;63355.56;5020953;28;20037;-79
2021/04/30 10:06:13;;;;;;;15.95;10.70;;;;;;;-141.50;100.00;63355.56;5017067;28;20041;-80
2021/04/30 10:08:43;;;;;;;15.85;10.82;;;;;;;-141.50;100.00;63355.56;5065044;28;20083;-79
2021/04/30 10:11:28;;;;;;;14.50;10.32;;;;;;;-141.50;100.00;63355.56;5075341;28;20051;-80
2021/04/30 10:13:55;;;;;;;13.98;10.57;;;;;;;-141.50;100.00;63355.56;5059584;28;20044;-80
2021/04/30 10:16:21;;;;;;;16.38;10.73;;;;;;;-141.50;100.00;63355.56;5056600;28;20041;-79
2021/04/30 10:18:47;;;;;;;19.33;11.32;;;;;;;-141.50;100.00;63355.56;5046752;23;20056;-79
2021/04/30 10:21:14;;;;;;;14.48;10.65;;;;;;;-141.50;100.00;63355.56;5024554;28;20052;-79
2021/04/30 10:23:50;;;;;;;19.42;10.80;;;;;;;-141.50;100.00;63355.56;5047590;28;20072;-79
2021/04/30 10:26:17;;;;;;;;;;;;;;;-141.50;100.00;63355.56;5056470;28;20053;-77
2021/04/30 10:28:52;;;;;;;16.45;10.32;;;;;;;-141.50;100.00;63355.56;5029983;28;20354;-78
2021/04/30 10:31:27;;;;;;;13.52;9.43;;;;;;;-141.50;100.00;63355.56;5051623;28;20053;-78
2021/04/30 10:34:04;;;;;;;17.92;10.85;;;;;;;-141.50;100.00;63355.56;5049657;28;20151;-78
2021/04/30 10:36:47;;;;;;;18.15;10.80;;;;;;;-141.50;100.00;63355.56;5045975;28;20503;-79
2021/04/30 10:39:30;;;;;;;16.38;11.30;;;;;;;-141.50;100.00;63355.56;5047390;28;20072;-77
2021/04/30 10:41:56;;;;;;;15.95;10.48;;;;;;;-141.50;100.00;63355.56;5074743;28;20101;-76
2021/04/30 10:44:32;;;;;;;13.45;8.60;;;;;;;-141.50;100.00;63355.56;5069861;28;20127;-78
2021/04/30 10:47:04;;;;;;;12.77;8.10;;;;;;;-141.50;100.00;63355.56;5049011;28;20080;-78
2021/04/30 10:49:31;;;;;;;11.43;8.63;;;;;;;-141.50;100.00;63355.56;5048816;28;20063;-79
2021/04/30 10:52:25;;;;;;;11.52;8.43;;;;;;;-141.50;100.00;63355.56;5033689;28;20051;-78
2021/04/30 10:55:03;;;;;;;14.10;8.75;;;;;;;-141.50;100.00;63355.56;5047046;28;20176;-77
2021/04/30 10:57:49;;;;;;;11.43;8.68;;;;;;;-141.50;100.00;63355.56;5053704;28;20049;-78
2021/04/30 11:00:16;;;;;;;;;;;;;;;-141.50;100.00;63355.56;5072646;28;20079;-78